Time;durP1;ratioP1;P1;durP2;ratioP2;P2;SDS_P1;SDS_P2;PMS_P1;PMS_P2;Temp;Humidity;BMP_temperature;BMP_pressure;BME280_temperature;BME280_humidity;BME280_pressure;Samples;Min_cycle;Max_cycle;Signal;HPM_P1;HPM_P2
2022/04/03 00:00:38;;;;;;;;;;;0.20;99.90;;;;;;5046029;28;19909;-80
2022/04/03 00:03:04;;;;;;;;;;;0.20;99.90;;;;;;5037780;28;19917;-80
2022/04/03 00:05:33;;;;;;;;;;;0.10;99.90;;;;;;5024233;28;19917;-80
2022/04/03 00:07:59;;;;;;;;;;;0.10;99.90;;;;;;5041224;28;20287;-80
2022/04/03 00:10:24;;;;;;;;;;;0.10;99.90;;;;;;5039689;28;19916;-80
2022/04/03 00:12:50;;;;;;;;;;;0.10;99.90;;;;;;5013371;28;19917;-80
2022/04/03 00:15:16;;;;;;;;;;;0.10;99.90;;;;;;5035034;28;19916;-80
2022/04/03 00:17:43;;;;;;;;;;;0.10;99.90;;;;;;5022856;28;19929;-80
2022/04/03 00:20:09;;;;;;;;;;;0.20;99.90;;;;;;5037525;28;20323;-80
2022/04/03 00:22:34;;;;;;;;;;;0.20;99.90;;;;;;5021685;28;19924;-79
2022/04/03 00:25:00;;;;;;;;;;;0.20;99.90;;;;;;5034433;28;20427;-80
2022/04/03 00:27:25;;;;;;;;;;;0.20;99.90;;;;;;5020061;28;20411;-79
2022/04/03 00:29:51;;;;;;;;;;;0.30;99.90;;;;;;5030775;28;19924;-79
2022/04/03 00:32:17;;;;;;;;;;;0.30;99.90;;;;;;5041768;28;19923;-79
2022/04/03 00:34:42;;;;;;;;;;;0.30;99.90;;;;;;5043760;28;19919;-79
2022/04/03 00:37:08;;;;;;;;;;;0.30;99.90;;;;;;5016183;28;19924;-80
2022/04/03 00:39:33;;;;;;;;;;;0.30;99.90;;;;;;5043575;28;19927;-80
2022/04/03 00:41:59;;;;;;;;;;;0.40;99.90;;;;;;5043192;28;20402;-80
2022/04/03 00:44:25;;;;;;;;;;;0.40;99.90;;;;;;5034373;28;20360;-79
2022/04/03 00:46:50;;;;;;;;;;;0.40;99.90;;;;;;5025711;28;20277;-80
2022/04/03 00:49:16;;;;;;;;;;;0.40;99.90;;;;;;5045886;28;19917;-80
2022/04/03 00:51:42;;;;;;;;;;;0.40;99.90;;;;;;5037337;28;19926;-80
2022/04/03 00:54:07;;;;;;;;;;;0.40;99.90;;;;;;5038226;28;20411;-80
2022/04/03 00:56:33;;;;;;;;;;;0.40;99.90;;;;;;5044187;28;20451;-80
2022/04/03 00:58:59;;;;;;;;;;;0.40;99.90;;;;;;5026099;28;20009;-80
2022/04/03 01:01:25;;;;;;;;;;;0.40;99.90;;;;;;5045920;28;20260;-80
2022/04/03 01:03:50;;;;;;;;;;;0.40;99.90;;;;;;5050435;28;20363;-80
2022/04/03 01:06:16;;;;;;;;;;;0.40;99.90;;;;;;5025968;28;19921;-80
2022/04/03 01:08:44;;;;;;;;;;;0.40;99.90;;;;;;5047931;28;19991;-80
2022/04/03 01:11:13;;;;;;;;;;;0.40;99.90;;;;;;5015446;28;20021;-80
2022/04/03 01:13:46;;;;;;;;;;;0.40;99.90;;;;;;5067098;22;19966;-78
2022/04/03 01:16:11;;;;;;;;;;;0.40;99.90;;;;;;5010556;28;19926;-78
2022/04/03 01:18:37;;;;;;;;;;;0.40;99.90;;;;;;5016014;28;20388;-77
2022/04/03 01:21:02;;;;;;;;;;;0.40;99.90;;;;;;5046812;28;20007;-78
2022/04/03 01:23:28;;;;;;;;;;;0.40;99.90;;;;;;5018220;28;19969;-78
2022/04/03 01:25:53;;;;;;;;;;;0.40;99.90;;;;;;5034778;28;19952;-78
2022/04/03 01:28:19;;;;;;;;;;;0.50;99.90;;;;;;5009104;28;19917;-78
2022/04/03 01:30:44;;;;;;;;;;;0.50;99.90;;;;;;5002831;28;19960;-78
2022/04/03 01:33:10;;;;;;;;;;;0.50;99.90;;;;;;5009172;28;19921;-77
2022/04/03 01:35:35;;;;;;;;;;;0.50;99.90;;;;;;5026023;28;20229;-78
2022/04/03 01:38:01;;;;;;;;;;;0.50;99.90;;;;;;5015938;28;19921;-78
2022/04/03 01:40:26;;;;;;;;;;;0.50;99.90;;;;;;5004698;28;19924;-78
2022/04/03 01:42:52;;;;;;;;;;;0.50;99.90;;;;;;5009393;28;19924;-78
2022/04/03 01:45:19;;;;;;;;;;;0.50;99.90;;;;;;5025901;28;19914;-78
2022/04/03 01:47:45;;;;;;;;;;;0.50;99.90;;;;;;5014096;28;20000;-78
2022/04/03 01:50:10;;;;;;;;;;;0.50;99.90;;;;;;5004662;28;20338;-78
2022/04/03 01:52:36;;;;;;;;;;;0.50;99.90;;;;;;5024678;28;20357;-78
2022/04/03 01:55:01;;;;;;;;;;;0.50;99.90;;;;;;5003151;28;19957;-78
2022/04/03 01:57:27;;;;;;;;;;;0.50;99.90;;;;;;5008514;28;19922;-78
2022/04/03 01:59:52;;;;;;;;;;;0.50;99.90;;;;;;5022680;28;20003;-78
2022/04/03 02:02:18;;;;;;;;;;;0.40;99.90;;;;;;5006948;28;20402;-78
2022/04/03 02:04:45;;;;;;;;;;;0.40;99.90;;;;;;5023297;28;19982;-78
2022/04/03 02:07:11;;;;;;;;;;;0.40;99.90;;;;;;5005831;28;19917;-78
2022/04/03 02:09:36;;;;;;;;;;;0.30;99.90;;;;;;5022325;28;20395;-77
2022/04/03 02:12:04;;;;;;;;;;;0.20;99.90;;;;;;5004189;28;19921;-78
2022/04/03 02:14:29;;;;;;;;;;;0.20;99.90;;;;;;5029178;28;19917;-78
2022/04/03 02:16:56;;;;;;;;;;;0.20;99.90;;;;;;5032776;28;19943;-78
2022/04/03 02:19:21;;;;;;;;;;;0.10;99.90;;;;;;5016595;28;19952;-78
2022/04/03 02:21:47;;;;;;;;;;;0.10;99.90;;;;;;5016418;28;19924;-78
2022/04/03 02:24:12;;;;;;;;;;;0.00;99.90;;;;;;5033152;28;19951;-78
2022/04/03 02:26:38;;;;;;;;;;;0.00;99.90;;;;;;5024045;28;19917;-78
2022/04/03 02:29:04;;;;;;;;;;;0.00;99.90;;;;;;5018760;28;19953;-80
2022/04/03 02:31:29;;;;;;;;;;;0.00;99.90;;;;;;5010365;28;19924;-80
2022/04/03 02:33:55;;;;;;;;;;;-0.10;99.90;;;;;;5009286;28;20395;-79
2022/04/03 02:36:20;;;;;;;;;;;-0.10;99.90;;;;;;5045193;28;19926;-80
2022/04/03 02:38:46;;;;;;;;;;;-0.10;99.90;;;;;;4999861;28;20320;-78
2022/04/03 02:41:12;;;;;;;;;;;-0.10;99.90;;;;;;5029179;28;19936;-78
2022/04/03 02:43:38;;;;;;;;;;;-0.10;99.90;;;;;;5003906;28;20379;-78
2022/04/03 02:46:03;;;;;;;;;;;-0.20;99.90;;;;;;5012165;28;19917;-77
2022/04/03 02:48:30;;;;;;;;;;;-0.20;99.90;;;;;;5001847;28;19923;-78
2022/04/03 02:50:56;;;;;;;;;;;-0.20;99.90;;;;;;5031377;28;19997;-77
2022/04/03 02:53:22;;;;;;;;;;;-0.20;99.90;;;;;;4998828;28;20389;-78
2022/04/03 02:55:47;;;;;;;;;;;-0.20;99.90;;;;;;5027896;28;20011;-78
2022/04/03 02:58:13;;;;;;;;;;;-0.20;99.90;;;;;;4998722;28;19929;-80
2022/04/03 03:00:38;;;;;;;;;;;-0.20;99.90;;;;;;5022802;28;20368;-80
2022/04/03 03:03:07;;;;;;;;;;;-0.20;99.90;;;;;;5007382;28;20436;-80
2022/04/03 03:05:33;;;;;;;;;;;-0.20;99.90;;;;;;5007532;28;19921;-80
2022/04/03 03:07:59;;;;;;;;;;;-0.30;99.90;;;;;;5042506;28;19913;-80
2022/04/03 03:10:25;;;;;;;;;;;-0.30;99.90;;;;;;5022680;28;19949;-80
2022/04/03 03:12:50;;;;;;;;;;;-0.30;99.90;;;;;;5006505;28;19926;-80
2022/04/03 03:15:16;;;;;;;;;;;-0.30;99.90;;;;;;5030102;28;19948;-79
2022/04/03 03:17:43;;;;;;;;;;;-0.30;99.90;;;;;;5021816;28;19924;-79
2022/04/03 03:20:08;;;;;;;;;;;-0.30;99.90;;;;;;5030771;28;19917;-79
2022/04/03 03:22:34;;;;;;;;;;;-0.30;99.90;;;;;;5023485;28;20013;-78
2022/04/03 03:25:00;;;;;;;;;;;-0.30;99.90;;;;;;5017731;28;19919;-78
2022/04/03 03:27:25;;;;;;;;;;;-0.30;99.90;;;;;;5004308;28;19917;-78
2022/04/03 03:29:51;;;;;;;;;;;-0.20;99.90;;;;;;5000377;28;20300;-78
2022/04/03 03:32:17;;;;;;;;;;;-0.20;99.90;;;;;;5028030;28;20283;-78
2022/04/03 03:34:42;;;;;;;;;;;-0.20;99.90;;;;;;5008906;28;19960;-78
2022/04/03 03:37:08;;;;;;;;;;;-0.20;99.90;;;;;;5022064;28;20224;-78
2022/04/03 03:39:34;;;;;;;;;;;-0.10;99.90;;;;;;5020114;28;19913;-78
2022/04/03 03:42:00;;;;;;;;;;;-0.10;99.90;;;;;;5025776;28;19952;-78
2022/04/03 03:44:26;;;;;;;;;;;-0.10;99.90;;;;;;5025878;28;19957;-78
2022/04/03 03:46:51;;;;;;;;;;;-0.10;99.90;;;;;;5003273;28;19941;-78
2022/04/03 03:49:17;;;;;;;;;;;-0.10;99.90;;;;;;5001255;28;19924;-78
2022/04/03 03:51:42;;;;;;;;;;;0.00;99.90;;;;;;5021539;28;19991;-78
2022/04/03 03:54:08;;;;;;;;;;;0.00;99.90;;;;;;5019719;28;19972;-78
2022/04/03 03:56:34;;;;;;;;;;;0.00;99.90;;;;;;5027145;28;19917;-77
2022/04/03 03:58:59;;;;;;;;;;;0.00;99.90;;;;;;5004217;28;19968;-77
2022/04/03 04:01:25;;;;;;;;;;;0.00;99.90;;;;;;5030749;28;19952;-78
2022/04/03 04:03:51;;;;;;;;;;;0.00;99.90;;;;;;5010259;28;20191;-78
2022/04/03 04:06:16;;;;;;;;;;;0.00;99.90;;;;;;5017540;28;20358;-77
2022/04/03 04:08:42;;;;;;;;;;;0.00;99.90;;;;;;5009572;28;20025;-77
2022/04/03 04:11:08;;;;;;;;;;;-0.10;99.90;;;;;;5015186;28;19929;-78
2022/04/03 04:13:33;;;;;;;;;;;-0.10;99.90;;;;;;5021715;28;19999;-78
2022/04/03 04:15:59;;;;;;;;;;;-0.10;99.90;;;;;;5028520;28;19963;-78
2022/04/03 04:18:24;;;;;;;;;;;-0.10;99.90;;;;;;5004566;28;19917;-78
2022/04/03 04:20:53;;;;;;;;;;;-0.10;99.90;;;;;;5002637;28;20016;-77
2022/04/03 04:23:21;;;;;;;;;;;-0.10;99.90;;;;;;5032660;28;20343;-78
2022/04/03 04:25:47;;;;;;;;;;;-0.10;99.90;;;;;;5020102;28;20008;-78
2022/04/03 04:28:13;;;;;;;;;;;-0.10;99.90;;;;;;5032147;28;20419;-78
2022/04/03 04:30:39;;;;;;;;;;;-0.10;99.90;;;;;;5026463;28;19914;-78
2022/04/03 04:33:06;;;;;;;;;;;-0.10;99.90;;;;;;5029347;28;19921;-78
2022/04/03 04:35:32;;;;;;;;;;;-0.10;99.90;;;;;;5031143;28;19921;-78
2022/04/03 04:37:58;;;;;;;;;;;-0.10;99.90;;;;;;5019410;28;20295;-78
2022/04/03 04:40:23;;;;;;;;;;;-0.10;99.90;;;;;;5023870;28;19913;-78
2022/04/03 04:42:49;;;;;;;;;;;-0.20;99.90;;;;;;5021914;28;19957;-78
2022/04/03 04:45:15;;;;;;;;;;;-0.20;99.90;;;;;;5006639;28;19952;-78
2022/04/03 04:47:41;;;;;;;;;;;-0.20;99.90;;;;;;5030325;28;19996;-78
2022/04/03 04:50:08;;;;;;;;;;;-0.20;99.90;;;;;;5005627;28;19922;-78
2022/04/03 04:52:34;;;;;;;;;;;-0.20;99.90;;;;;;5031096;28;19913;-78
2022/04/03 04:54:59;;;;;;;;;;;-0.30;99.90;;;;;;5004546;28;19948;-77
2022/04/03 04:57:25;;;;;;;;;;;-0.30;99.90;;;;;;5009334;28;20398;-78
2022/04/03 04:59:51;;;;;;;;;;;-0.30;99.90;;;;;;5004187;28;19971;-78
2022/04/03 05:02:16;;;;;;;;;;;-0.40;99.90;;;;;;5027617;28;19975;-78
2022/04/03 05:04:42;;;;;;;;;;;-0.40;99.90;;;;;;5008335;28;19932;-77
2022/04/03 05:07:09;;;;;;;;;;;-0.50;99.90;;;;;;5024000;28;19913;-78
2022/04/03 05:09:35;;;;;;;;;;;-0.50;99.90;;;;;;5005348;28;20363;-78
2022/04/03 05:12:00;;;;;;;;;;;-0.60;99.90;;;;;;5033957;28;19921;-78
2022/04/03 05:14:26;;;;;;;;;;;-0.70;99.90;;;;;;5022551;28;20276;-78
2022/04/03 05:16:52;;;;;;;;;;;-0.70;99.90;;;;;;5015677;28;19921;-77
2022/04/03 05:19:17;;;;;;;;;;;-0.70;99.90;;;;;;5029639;28;19913;-79
2022/04/03 05:21:43;;;;;;;;;;;-0.70;99.90;;;;;;5029189;28;19917;-78
2022/04/03 05:24:08;;;;;;;;;;;-0.80;99.90;;;;;;5008259;28;19925;-78
2022/04/03 05:26:34;;;;;;;;;;;-0.70;99.90;;;;;;5026158;28;19957;-77
2022/04/03 05:28:59;;;;;;;;;;;-0.80;99.90;;;;;;5019123;28;19917;-77
2022/04/03 05:31:26;;;;;;;;;;;-0.80;99.90;;;;;;5006257;28;19924;-78
2022/04/03 05:33:52;;;;;;;;;;;-0.80;99.90;;;;;;5005205;28;19921;-78
2022/04/03 05:36:17;;;;;;;;;;;-0.70;99.90;;;;;;5013716;28;19928;-78
2022/04/03 05:38:43;;;;;;;;;;;-0.70;99.90;;;;;;5011841;28;19924;-78
2022/04/03 05:41:08;;;;;;;;;;;-0.70;99.90;;;;;;5002126;28;19941;-78
2022/04/03 05:43:34;;;;;;;;;;;-0.70;99.90;;;;;;5009562;28;19921;-78
2022/04/03 05:45:59;;;;;;;;;;;-0.70;99.90;;;;;;5028479;28;20009;-79
2022/04/03 05:48:28;;;;;;;;;;;-0.60;99.90;;;;;;5025383;28;19918;-78
2022/04/03 05:50:53;;;;;;;;;;;-0.60;99.90;;;;;;5040943;28;19959;-77
2022/04/03 05:53:20;;;;;;;;;;;-0.60;99.90;;;;;;5004078;28;19921;-77
2022/04/03 05:55:47;;;;;;;;;;;-0.50;99.90;;;;;;5015446;28;20012;-78
2022/04/03 05:58:12;;;;;;;;;;;-0.50;99.90;;;;;;5007791;28;19917;-78
2022/04/03 06:00:38;;;;;;;;;;;-0.40;99.90;;;;;;5030486;28;19920;-78
2022/04/03 06:03:07;;;;;;;;;;;-0.40;99.90;;;;;;5010120;28;20032;-78
2022/04/03 06:05:38;;;;;;;;;;;-0.40;99.90;;;;;;5027527;28;19917;-78
2022/04/03 06:08:04;;;;;;;;;;;-0.30;99.90;;;;;;5025090;28;19920;-77
2022/04/03 06:10:30;;;;;;;;;;;-0.20;99.90;;;;;;5019864;28;19913;-78
2022/04/03 06:13:00;;;;;;;;;;;-0.20;99.90;;;;;;5027659;28;20631;-78
2022/04/03 06:15:27;;;;;;;;;;;-0.10;99.90;;;;;;5027158;28;19975;-78
2022/04/03 06:17:55;;;;;;;;;;;-0.10;99.90;;;;;;5029962;28;20329;-78
2022/04/03 06:20:21;;;;;;;;;;;0.00;99.90;;;;;;5017713;28;19924;-78
2022/04/03 06:22:47;;;;;;;;;;;0.00;99.90;;;;;;5029150;28;19913;-78
2022/04/03 06:25:16;;;;;;;;;;;0.10;99.90;;;;;;5019561;28;19975;-78
2022/04/03 06:27:44;;;;;;;;;;;0.20;99.90;;;;;;5018204;28;19922;-77
2022/04/03 06:30:10;;;;;;;;;;;0.20;99.90;;;;;;5022084;28;19921;-77
2022/04/03 06:32:39;;;;;;;;;;;0.30;99.90;;;;;;5023613;28;20281;-77
2022/04/03 06:35:05;;;;;;;;;;;0.30;99.90;;;;;;5020119;28;19928;-78
2022/04/03 06:37:33;;;;;;;;;;;0.40;99.90;;;;;;5007255;28;19928;-77
2022/04/03 06:39:59;;;;;;;;;;;0.40;99.90;;;;;;5024044;28;19913;-77
2022/04/03 06:42:25;;;;;;;;;;;0.40;99.90;;;;;;5008242;28;19925;-78
2022/04/03 06:44:51;;;;;;;;;;;0.50;99.90;;;;;;5024001;28;20437;-78
2022/04/03 06:47:16;;;;;;;;;;;0.50;99.50;;;;;;5019795;28;19936;-78
2022/04/03 06:49:42;;;;;;;;;;;0.60;99.80;;;;;;5004491;28;20648;-78
2022/04/03 06:52:08;;;;;;;;;;;0.60;98.30;;;;;;5005380;28;19980;-78
2022/04/03 06:54:34;;;;;;;;;;;0.70;99.20;;;;;;5018431;28;19944;-77
2022/04/03 06:57:00;;;;;;;;;;;0.80;99.60;;;;;;5026602;28;20395;-77
2022/04/03 06:59:26;;;;;;;;;;;0.80;98.90;;;;;;5011688;28;19968;-77
2022/04/03 07:01:51;;;;;;;;;;;0.90;99.10;;;;;;4995751;28;20299;-77
2022/04/03 07:04:17;;;;;;;;;;;0.90;98.40;;;;;;5003272;28;19948;-77
2022/04/03 07:06:42;;;;;;;;;;;1.00;96.40;;;;;;5035157;28;19917;-77
2022/04/03 07:09:08;;;;;;;;;;;1.10;96.70;;;;;;5018153;28;19924;-77
2022/04/03 07:11:33;;;;;;;;;;;1.10;95.60;;;;;;5002005;28;20438;-77
2022/04/03 07:13:59;;;;;;;;;;;1.20;96.20;;;;;;5000049;28;19925;-77
2022/04/03 07:16:24;;;;;;;;;;;1.30;95.70;;;;;;5040908;22;20010;-81
2022/04/03 07:18:50;;;;;;;;;;;1.30;95.00;;;;;;5040361;28;19963;-81
2022/04/03 07:21:15;;;;;;;;;;;1.40;93.70;;;;;;5064177;28;20050;-81
2022/04/03 07:23:42;;;;;;;;;;;1.40;93.70;;;;;;5040605;28;20140;-81
2022/04/03 07:26:07;;;;;;;;;;;1.50;93.30;;;;;;5050139;28;19913;-80
2022/04/03 07:28:33;;;;;;;;;;;1.60;93.20;;;;;;5036672;28;19921;-81
2022/04/03 07:30:58;;;;;;;;;;;1.60;92.70;;;;;;5017618;28;19925;-81
2022/04/03 07:33:24;;;;;;;;;;;1.70;92.20;;;;;;5026872;28;19917;-80
2022/04/03 07:35:50;;;;;;;;;;;1.70;91.90;;;;;;5035838;28;19979;-81
2022/04/03 07:38:16;;;;;;;;;;;1.80;91.50;;;;;;5036227;28;19910;-81
2022/04/03 07:40:41;;;;;;;;;;;1.80;90.20;;;;;;5037092;28;19921;-81
2022/04/03 07:43:07;;;;;;;;;;;1.80;90.50;;;;;;5017494;28;19944;-83
2022/04/03 07:45:32;;;;;;;;;;;1.90;88.30;;;;;;5030332;28;19918;-82
2022/04/03 07:47:58;;;;;;;;;;;1.90;87.70;;;;;;5025159;28;19921;-83
2022/04/03 07:50:25;;;;;;;;;;;2.00;90.10;;;;;;5041514;28;20398;-83
2022/04/03 07:52:51;;;;;;;;;;;2.00;90.90;;;;;;5038082;28;19909;-82
2022/04/03 07:55:17;;;;;;;;;;;2.10;89.80;;;;;;5044228;28;19936;-82
2022/04/03 07:57:43;;;;;;;;;;;2.20;90.80;;;;;;5020278;28;20012;-82
2022/04/03 08:00:10;;;;;;;;;;;2.30;91.00;;;;;;5021507;28;20401;-83
2022/04/03 08:02:37;;;;;;;;;;;2.40;90.60;;;;;;5035782;28;20467;-82
2022/04/03 08:05:02;;;;;;;;;;;2.50;87.00;;;;;;5043174;28;19913;-82
2022/04/03 08:07:38;;;;;;;;;;;2.50;84.50;;;;;;5049448;28;19917;-81
2022/04/03 08:10:05;;;;;;;;;;;2.50;86.10;;;;;;5024021;28;19940;-82
2022/04/03 08:12:31;;;;;;;;;;;2.60;83.60;;;;;;5043643;28;19916;-81
2022/04/03 08:14:57;;;;;;;;;;;2.70;88.30;;;;;;5046874;28;19999;-82
2022/04/03 08:17:23;;;;;;;;;;;2.80;80.90;;;;;;5046727;28;20023;-81
2022/04/03 08:19:48;;;;;;;;;;;2.80;78.10;;;;;;5050235;28;20007;-81
2022/04/03 08:22:14;;;;;;;;;;;2.80;81.30;;;;;;5013711;28;20384;-82
2022/04/03 08:24:39;;;;;;;;;;;2.90;82.30;;;;;;5040542;28;19913;-81
2022/04/03 08:27:06;;;;;;;;;;;3.00;84.90;;;;;;5024584;28;19921;-82
2022/04/03 08:29:31;;;;;;;;;;;3.20;81.80;;;;;;5017952;28;19924;-82
2022/04/03 08:31:57;;;;;;;;;;;3.50;75.70;;;;;;5018973;28;19917;-82
2022/04/03 08:34:22;;;;;;;;;;;3.70;76.40;;;;;;5023626;28;19921;-82
2022/04/03 08:36:48;;;;;;;;;;;3.90;73.50;;;;;;5040807;28;19925;-82
2022/04/03 08:39:13;;;;;;;;;;;3.90;69.60;;;;;;5049041;28;19923;-82
2022/04/03 08:41:39;;;;;;;;;;;3.90;68.60;;;;;;5032450;28;19964;-82
2022/04/03 08:44:07;;;;;;;;;;;3.80;72.10;;;;;;5039091;28;19917;-82
2022/04/03 08:46:33;;;;;;;;;;;3.60;69.60;;;;;;5025620;28;20374;-82
2022/04/03 08:49:01;;;;;;;;;;;3.40;71.30;;;;;;5049876;28;19913;-83
2022/04/03 08:51:31;;;;;;;;;;;3.10;71.60;;;;;;5047614;28;19920;-83
2022/04/03 08:53:57;;;;;;;;;;;3.00;74.50;;;;;;5038982;28;19919;-83
2022/04/03 08:56:22;;;;;;;;;;;2.90;70.50;;;;;;5035848;28;20354;-83
2022/04/03 08:58:48;;;;;;;;;;;2.80;69.90;;;;;;5046701;28;19920;-83
2022/04/03 09:01:16;;;;;;;;;;;2.70;67.40;;;;;;5026543;28;19924;-83
2022/04/03 09:03:42;;;;;;;;;;;2.60;72.10;;;;;;5028261;28;20307;-83
2022/04/03 09:06:14;;;;;;;;;;;2.60;74.10;;;;;;5044971;28;19913;-83
2022/04/03 09:08:40;;;;;;;;;;;2.70;75.80;;;;;;5040780;28;20001;-82
2022/04/03 09:11:07;;;;;;;;;;;2.70;70.50;;;;;;5039335;28;19948;-82
2022/04/03 09:13:33;;;;;;;;;;;2.70;69.00;;;;;;5050343;28;20433;-83
2022/04/03 09:15:58;;;;;;;;;;;2.70;68.80;;;;;;5051490;28;19925;-82
2022/04/03 09:18:41;;;;;;;;;;;2.80;69.10;;;;;;5030100;28;19920;-82
2022/04/03 09:21:14;;;;;;;;;;;2.80;69.30;;;;;;5041575;28;19913;-82
2022/04/03 09:23:58;;;;;;;;;;;2.90;70.00;;;;;;5058766;28;19913;-82
2022/04/03 09:26:24;;;;;;;;;;;3.00;67.80;;;;;;5040482;28;19925;-82
2022/04/03 09:28:49;;;;;;;;;;;3.10;64.40;;;;;;5043042;28;19913;-82
2022/04/03 09:31:30;;;;;;;;;;;3.30;66.50;;;;;;5039432;28;19917;-82
2022/04/03 09:34:02;;;;;;;;;;;3.40;66.00;;;;;;5026078;28;19917;-82
2022/04/03 09:36:29;;;;;;;;;;;3.50;64.10;;;;;;5037879;28;20307;-83
2022/04/03 09:39:08;;;;;;;;;;;3.50;58.60;;;;;;5036286;28;19943;-82
2022/04/03 09:41:52;;;;;;;;;;;3.40;54.70;;;;;;5043398;28;19921;-82
2022/04/03 09:44:18;;;;;;;;;;;3.30;55.90;;;;;;5049018;28;19924;-82
2022/04/03 09:46:43;;;;;;;;;;;3.20;55.90;;;;;;5019499;28;19917;-82
2022/04/03 09:49:23;;;;;;;;;;;3.20;56.60;;;;;;5015990;28;20257;-82
2022/04/03 09:51:49;;;;;;;;;;;3.30;58.20;;;;;;5064989;28;19917;-82
2022/04/03 09:54:18;;;;;;;;;;;3.50;60.20;;;;;;5024650;28;19918;-82
2022/04/03 09:56:44;;;;;;;;;;;3.70;59.90;;;;;;5035369;28;19917;-81
2022/04/03 09:59:10;;;;;;;;;;;3.90;57.80;;;;;;5016984;28;19933;-82
2022/04/03 10:01:38;;;;;;;;;;;4.00;57.40;;;;;;5018202;28;19952;-82
2022/04/03 10:04:16;;;;;;;;;;;4.00;56.60;;;;;;5037314;28;19967;-84
2022/04/03 10:06:42;;;;;;;;;;;3.90;56.10;;;;;;5028799;28;20307;-83
2022/04/03 10:09:11;;;;;;;;;;;3.90;55.90;;;;;;5044952;28;19917;-83
2022/04/03 10:11:40;;;;;;;;;;;3.80;55.50;;;;;;5034932;28;19919;-84
2022/04/03 10:14:06;;;;;;;;;;;3.90;56.60;;;;;;5032907;28;19920;-84
2022/04/03 10:16:32;;;;;;;;;;;3.90;55.00;;;;;;5019956;28;19925;-84
2022/04/03 10:18:58;;;;;;;;;;;4.20;55.30;;;;;;5020887;28;20207;-84
2022/04/03 10:21:23;;;;;;;;;;;4.60;54.20;;;;;;5042132;28;20286;-84
2022/04/03 10:23:52;;;;;;;;;;;4.90;50.80;;;;;;5041849;28;19935;-84
2022/04/03 10:26:18;;;;;;;;;;;5.00;48.90;;;;;;5034379;28;19969;-86
2022/04/03 10:28:47;;;;;;;;;;;5.20;50.80;;;;;;5021477;28;19939;-84
2022/04/03 10:31:15;;;;;;;;;;;5.50;50.20;;;;;;5043875;28;19913;-82
2022/04/03 10:33:42;;;;;;;;;;;5.80;49.10;;;;;;5024426;28;20375;-83
2022/04/03 10:36:09;;;;;;;;;;;5.80;47.40;;;;;;5048086;28;19923;-82
2022/04/03 10:38:58;;;;;;;;;;;5.80;47.90;;;;;;5040433;28;19920;-82
2022/04/03 10:41:25;;;;;;;;;;;5.50;46.50;;;;;;5044967;28;19923;-81
2022/04/03 10:44:09;;;;;;;;;;;5.10;47.20;;;;;;5031104;28;20331;-82
2022/04/03 10:46:54;;;;;;;;;;;4.90;50.00;;;;;;5038293;28;19936;-81
2022/04/03 10:49:27;;;;;;;;;;;4.80;50.70;;;;;;5045910;28;20015;-83
2022/04/03 10:51:57;;;;;;;;;;;4.90;48.60;;;;;;5048658;28;19967;-82
2022/04/03 10:54:40;;;;;;;;;;;5.00;47.10;;;;;;5049382;28;20004;-81
2022/04/03 10:57:24;;;;;;;;;;;5.30;46.90;;;;;;5046123;28;20012;-81
2022/04/03 11:00:09;;;;;;;;;;;5.30;45.70;;;;;;5043958;28;19977;-82
2022/04/03 11:02:35;;;;;;;;;;;5.30;45.60;;;;;;5055726;28;19912;-81
2022/04/03 11:05:20;;;;;;;;;;;5.20;45.20;;;;;;5045588;28;19920;-82
2022/04/03 11:07:45;;;;;;;;;;;5.10;44.80;;;;;;5053666;28;19913;-82
2022/04/03 11:10:11;;;;;;;;;;;4.90;46.10;;;;;;5045984;28;20283;-81
2022/04/03 11:12:43;;;;;;;;;;;4.90;48.30;;;;;;5048807;28;19913;-79
2022/04/03 11:15:12;;;;;;;;;;;5.10;49.60;;;;;;5027080;28;19913;-82
2022/04/03 11:17:47;;;;;;;;;;;5.40;47.30;;;;;;5032581;28;20511;-81
2022/04/03 11:20:48;;;;;;;;;;;5.70;46.30;;;;;;5015126;28;19918;-81
2022/04/03 11:23:16;;;;;;;;;;;6.00;46.80;;;;;;5005329;28;19967;-80
2022/04/03 11:25:42;;;;;;;;;;;6.50;48.40;;;;;;5024982;28;19920;-81
2022/04/03 11:28:08;;;;;;;;;;;6.50;45.60;;;;;;5029583;28;20470;-84
2022/04/03 11:30:34;;;;;;;;;;;6.40;46.50;;;;;;5009580;28;20326;-84
2022/04/03 11:33:00;;;;;;;;;;;6.40;44.70;;;;;;5013543;28;19921;-84
2022/04/03 11:35:33;;;;;;;;;;;6.50;46.20;;;;;;5012208;28;19937;-84
2022/04/03 11:37:58;;;;;;;;;;;6.40;49.10;;;;;;5044272;28;19916;-84
2022/04/03 11:40:24;;;;;;;;;;;6.20;48.20;;;;;;5022237;28;19996;-84
2022/04/03 11:43:04;;;;;;;;;;;6.00;47.60;;;;;;5042104;28;20322;-83
2022/04/03 11:45:30;;;;;;;;;;;5.80;46.80;;;;;;5037190;28;19966;-84
2022/04/03 11:48:12;;;;;;;;;;;5.60;47.10;;;;;;5017192;28;19917;-84
2022/04/03 11:50:38;;;;;;;;;;;5.70;48.10;;;;;;5037928;28;19974;-83
2022/04/03 11:53:10;;;;;;;;;;;5.60;47.20;;;;;;5048532;28;20347;-83
2022/04/03 11:55:36;;;;;;;;;;;5.60;46.80;;;;;;5030936;28;19913;-84
2022/04/03 11:58:05;;;;;;;;;;;5.80;46.50;;;;;;5024751;28;20408;-84
2022/04/03 12:00:31;;;;;;;;;;;6.10;45.80;;;;;;5039997;28;19917;-84
2022/04/03 12:02:57;;;;;;;;;;;6.30;48.30;;;;;;5041375;28;19909;-84
2022/04/03 12:05:23;;;;;;;;;;;6.60;45.20;;;;;;5022123;28;19917;-84
2022/04/03 12:07:49;;;;;;;;;;;6.50;42.30;;;;;;5019931;28;20363;-85
2022/04/03 12:10:25;;;;;;;;;;;6.30;43.50;;;;;;5031688;28;19913;-84
2022/04/03 12:12:51;;;;;;;;;;;6.30;44.20;;;;;;5026184;28;19913;-84
2022/04/03 12:15:19;;;;;;;;;;;6.20;45.60;;;;;;5040809;28;19986;-84
2022/04/03 12:17:45;;;;;;;;;;;6.30;47.90;;;;;;5032460;28;19921;-85
2022/04/03 12:20:12;;;;;;;;;;;6.30;47.20;;;;;;5037432;28;19913;-83
2022/04/03 12:22:40;;;;;;;;;;;6.20;45.70;;;;;;5033484;28;19917;-84
2022/04/03 12:25:05;;;;;;;;;;;6.00;47.70;;;;;;5039297;28;19964;-84
2022/04/03 12:27:33;;;;;;;;;;;5.80;49.30;;;;;;5036086;28;20390;-84
2022/04/03 12:29:58;;;;;;;;;;;5.60;51.00;;;;;;5012603;28;19943;-83
2022/04/03 12:32:35;;;;;;;;;;;5.40;47.30;;;;;;5035716;28;20430;-83
2022/04/03 12:35:01;;;;;;;;;;;5.30;51.00;;;;;;5024198;28;19927;-85
2022/04/03 12:37:31;;;;;;;;;;;5.30;50.90;;;;;;5033764;28;19917;-83
2022/04/03 12:40:00;;;;;;;;;;;5.60;49.60;;;;;;5040498;28;19913;-84
2022/04/03 12:42:27;;;;;;;;;;;6.00;50.10;;;;;;5043530;28;19923;-85
2022/04/03 12:45:11;;;;;;;;;;;6.40;47.70;;;;;;5043309;28;19935;-84
2022/04/03 12:47:41;;;;;;;;;;;6.70;45.70;;;;;;5043255;28;20387;-84
2022/04/03 12:50:06;;;;;;;;;;;7.00;44.70;;;;;;5025890;28;19918;-84
2022/04/03 12:52:47;;;;;;;;;;;7.30;46.10;;;;;;5034445;28;19913;-83
2022/04/03 12:55:22;;;;;;;;;;;7.40;45.30;;;;;;5034148;28;19924;-82
2022/04/03 13:00:54;;;;;;;;;;;7.50;43.90;;;;;;5033938;28;19970;-81
2022/04/03 13:03:23;;;;;;;;;;;7.30;46.20;;;;;;5048629;28;20375;-82
2022/04/03 13:05:48;;;;;;;;;;;7.00;43.90;;;;;;5035091;28;19955;-82
2022/04/03 13:08:19;;;;;;;;;;;6.70;44.20;;;;;;5018447;28;19929;-82
2022/04/03 13:10:54;;;;;;;;;;;6.30;46.80;;;;;;5031770;28;19924;-80
2022/04/03 13:13:21;;;;;;;;;;;6.00;49.30;;;;;;5031931;28;20386;-81
2022/04/03 13:15:47;;;;;;;;;;;6.10;47.90;;;;;;5012984;28;19917;-80
2022/04/03 13:18:12;;;;;;;;;;;6.30;45.80;;;;;;5031303;22;20021;-84
2022/04/03 13:20:38;;;;;;;;;;;6.60;45.40;;;;;;5005603;28;20335;-82
2022/04/03 13:23:03;;;;;;;;;;;6.50;41.40;;;;;;5027885;28;19921;-84
2022/04/03 13:25:29;;;;;;;;;;;6.50;41.80;;;;;;5024991;28;19917;-84
2022/04/03 13:27:54;;;;;;;;;;;6.60;42.20;;;;;;5024462;28;19928;-82
2022/04/03 13:30:20;;;;;;;;;;;6.60;42.80;;;;;;5026598;28;20012;-84
2022/04/03 13:32:45;;;;;;;;;;;6.70;44.10;;;;;;5016541;28;19926;-83
2022/04/03 13:35:11;;;;;;;;;;;6.60;43.80;;;;;;5022449;28;19925;-83
2022/04/03 13:37:36;;;;;;;;;;;6.40;43.70;;;;;;5029312;28;19936;-84
2022/04/03 13:40:02;;;;;;;;;;;6.30;45.90;;;;;;5030178;28;19917;-84
2022/04/03 13:42:27;;;;;;;;;;;6.30;45.40;;;;;;5004080;28;19955;-83
2022/04/03 13:44:53;;;;;;;;;;;6.30;42.50;;;;;;4998479;28;19924;-82
2022/04/03 13:47:19;;;;;;;;;;;6.40;43.80;;;;;;5010819;28;19917;-84
2022/04/03 13:49:44;;;;;;;;;;;6.60;41.40;;;;;;5024133;28;19917;-83
2022/04/03 13:52:10;;;;;;;;;;;6.60;41.50;;;;;;5018577;28;19918;-83
2022/04/03 13:54:35;;;;;;;;;;;6.50;40.90;;;;;;5026807;28;19929;-84
2022/04/03 13:57:01;;;;;;;;;;;6.50;40.70;;;;;;5024383;28;19968;-84
2022/04/03 13:59:26;;;;;;;;;;;6.50;41.30;;;;;;5000828;28;19964;-84
2022/04/03 14:01:52;;;;;;;;;;;6.40;40.10;;;;;;5018877;28;19918;-83
2022/04/03 14:04:17;;;;;;;;;;;6.40;39.70;;;;;;5016002;28;19925;-83
2022/04/03 14:06:43;;;;;;;;;;;6.30;37.50;;;;;;5032973;28;20024;-83
2022/04/03 14:09:09;;;;;;;;;;;6.30;40.10;;;;;;4998684;28;19962;-84
2022/04/03 14:11:36;;;;;;;;;;;6.30;41.00;;;;;;4995373;28;19917;-83
2022/04/03 14:14:03;;;;;;;;;;;6.30;40.30;;;;;;5022013;28;19918;-84
2022/04/03 14:16:28;;;;;;;;;;;6.40;41.40;;;;;;5004981;28;20316;-83
2022/04/03 14:18:54;;;;;;;;;;;6.50;43.50;;;;;;5022386;28;19925;-83
2022/04/03 14:21:23;;;;;;;;;;;6.60;42.40;;;;;;5025714;28;20297;-84
2022/04/03 14:23:48;;;;;;;;;;;6.70;39.60;;;;;;4999782;28;19971;-84
2022/04/03 14:26:14;;;;;;;;;;;6.60;38.40;;;;;;5014081;28;19921;-82
2022/04/03 14:28:39;;;;;;;;;;;6.60;40.00;;;;;;5020677;28;19924;-83